Airfield :







YOU CAN JOIN US ON...

 
LOGIN :

Register | Disclaimer

   EN    FR    IT 

 









Legend :    VFR   Marginal VFR   IFR   Intensive IFR   Very Intensive IFR
Visi :
Ceiling :
>= 8 km
>= 3000ft
5 to 8 km
1000 to 3000 ft
1500m to 5 km
500 to 1000 ft
800 to 1500m
200 to 500 ft
< 800m
< 200 ft
Symbols :   Thunderstorms  Fog  Heavy snow  Heavy precipitations  Wind > 20 kt






- Airport Elevation : 241 ft
- IATA code : CEF


KCEF - Westover ARB/Metropolitan

CURRENT METAR :
  • 142016Z 00000KT 1 1/4SM -DZ BR BKN003 OVC006 07/07 A2922 RMK AO2A SLP902

EXPIRED METARs :
  • 141956Z 00000KT 5/8SM R23/P6000FT -DZ BR BKN002 OVC004 07/07 A2923 RMK AO2A PRESFR SLP905 T00730073
  • 141856Z 04003KT 1 1/4SM -DZ BR OVC003 07/07 A2929 RMK AO2A SLP926 T00710071
  • 141756Z 06004KT 1SM R23/P6000FT -DZ BR OVC003 07/07 A2931 RMK AO2A SLP932 P0001 60025 T00690069 10070 20037 57047
  • 141754Z 00000KT 1SM R23/P6000FT -DZ BR OVC003 07/07 A2933 RMK AO2A SLP939
  • 141747Z 03003KT 1SM R23/P6000FT -DZ BR OVC002 07/07 A2933 RMK AO2A SLP939

TAF TAF KCEF
Valid from the 14 at 19:00 until the 16 at 01:00 UTC


141900Z 1419/1601 VRB06KT 1600 -DZ BR OVC003 WS020/21030KT 540203 QNH2916INS
BECMG 1422/1423 20009KT 3200 -SHRA BR OVC005 WS015/20040KT 540159 QNH2914INS
BECMG 1503/1504 24010G15KT 9999 NSW BKN015 BKN080 540155 QNH2920INS
TEMPO 1504/1506 25015G25KT 3200 -SHRA BR 520004
BECMG 1505/1506 26010G15KT 9999 SCT025 BKN100 530159 QNH2928INS
BECMG 1513/1514 26015G25KT 9999 SCT035 BKN200 520004 530406 QNH2958INS
TEMPO 1514/1517 26025G35KT 530006 TX09/1501Z TN01/1511Z



MET'MAP, your aeronautical weather chart ! - Copyright ORBIFLY December 2007 - Disclaimer

ORBIFLY MET'MAP TEAM :

Programming & Development : Alexandra Zaïnal
Concept & original design : Baudouin d'Aumeries
Assistance for programming : Marc-Olivier Méhu
Technical & hardware support : Manuel Goepfert

Contact : metmap@orbifly.com




SOURCES & CREDITS :

   NOAA